createdAt,value
2022-11-04T00:01:40.972Z,13.85
2022-11-04T00:04:11.554Z,13.98
2022-11-04T00:06:40.251Z,13.50
2022-11-04T00:09:10.076Z,14.75
2022-11-04T00:11:55.528Z,14.30
2022-11-04T00:14:23.713Z,14.50
2022-11-04T00:17:09.245Z,15.18
2022-11-04T00:19:52.452Z,13.82
2022-11-04T00:22:38.624Z,14.82
2022-11-04T00:28:31.687Z,19.90
2022-11-04T00:31:22.008Z,23.60
2022-11-04T00:33:50.097Z,24.42
2022-11-04T00:36:20.137Z,27.42
2022-11-04T00:38:48.346Z,29.02
2022-11-04T00:41:28.699Z,26.73
2022-11-04T00:43:59.164Z,23.00
2022-11-04T00:46:27.282Z,18.67
2022-11-04T00:48:55.159Z,22.13
2022-11-04T00:51:25.413Z,18.45
2022-11-04T00:53:53.378Z,18.40
2022-11-04T00:56:21.477Z,14.68
2022-11-04T00:58:50.148Z,14.93
2022-11-04T01:01:19.962Z,14.63
2022-11-04T01:03:49.905Z,21.55
2022-11-04T01:06:18.810Z,26.50
2022-11-04T01:08:48.875Z,29.92
2022-11-04T01:11:17.406Z,32.08
2022-11-04T01:13:45.563Z,30.40
2022-11-04T01:16:13.790Z,30.15
2022-11-04T01:18:41.919Z,30.90
2022-11-04T01:21:13.572Z,26.48
2022-11-04T01:23:42.648Z,26.23
2022-11-04T01:26:14.776Z,26.42
2022-11-04T01:28:43.207Z,27.23
2022-11-04T01:31:13.429Z,29.10
2022-11-04T01:33:41.510Z,22.63
2022-11-04T01:36:11.380Z,19.50
2022-11-04T01:38:39.436Z,17.80
2022-11-04T01:41:08.819Z,16.15
2022-11-04T01:43:51.037Z,15.82
2022-11-04T01:46:28.258Z,15.35
2022-11-04T01:49:00.291Z,15.50
2022-11-04T01:51:31.009Z,15.63
2022-11-04T01:53:59.145Z,14.48
2022-11-04T01:56:28.488Z,15.15
2022-11-04T01:59:04.223Z,13.05
2022-11-04T02:01:32.799Z,9.55
2022-11-04T02:04:21.912Z,8.63
2022-11-04T02:06:52.088Z,10.32
2022-11-04T02:09:20.956Z,9.52
2022-11-04T02:12:06.709Z,10.32
2022-11-04T02:14:37.224Z,8.40
2022-11-04T02:17:20.875Z,9.05
2022-11-04T02:20:22.803Z,9.63
2022-11-04T02:23:28.379Z,9.70
2022-11-04T02:26:31.539Z,8.75
2022-11-04T02:29:26.737Z,9.68
2022-11-04T02:32:04.180Z,9.85
2022-11-04T02:34:41.673Z,9.25
2022-11-04T02:37:17.624Z,8.90
2022-11-04T02:39:54.248Z,9.70
2022-11-04T02:42:29.393Z,8.15
2022-11-04T02:45:11.847Z,9.23
2022-11-04T02:47:44.581Z,8.48
2022-11-04T02:50:18.565Z,9.27
2022-11-04T02:52:54.337Z,8.23
2022-11-04T02:55:26.052Z,8.13
2022-11-04T02:57:57.971Z,8.30
2022-11-04T03:00:27.659Z,7.88
2022-11-04T03:03:01.248Z,7.28
2022-11-04T03:05:33.873Z,7.60
2022-11-04T03:08:07.630Z,8.23
2022-11-04T03:10:39.480Z,7.10
2022-11-04T03:13:12.844Z,8.43
2022-11-04T03:15:49.628Z,7.93
2022-11-04T03:18:25.889Z,7.35
2022-11-04T03:20:57.722Z,7.20
2022-11-04T03:23:25.873Z,7.60
2022-11-04T03:26:04.372Z,7.60
2022-11-04T03:28:44.356Z,7.70
2022-11-04T03:31:22.128Z,7.68
2022-11-04T03:33:52.311Z,7.05
2022-11-04T03:36:21.802Z,8.18
2022-11-04T03:38:50.612Z,8.05
2022-11-04T03:41:28.220Z,8.23
2022-11-04T03:43:55.956Z,7.85
2022-11-04T03:46:25.732Z,7.85
2022-11-04T03:48:54.198Z,7.20
2022-11-04T03:51:22.232Z,6.57
2022-11-04T03:53:50.560Z,7.57
2022-11-04T03:56:40.662Z,7.22
2022-11-04T03:59:29.270Z,7.63
2022-11-04T04:02:05.490Z,18.50
2022-11-04T04:04:38.196Z,19.92
2022-11-04T04:07:13.220Z,21.30
2022-11-04T04:09:45.572Z,21.88
2022-11-04T04:12:21.834Z,19.55
2022-11-04T04:14:52.559Z,12.32
2022-11-04T04:17:29.905Z,10.88
2022-11-04T04:20:01.300Z,10.00
2022-11-04T04:22:32.577Z,15.35
2022-11-04T04:25:22.431Z,16.85
2022-11-04T04:27:52.667Z,13.35
2022-11-04T04:30:20.698Z,9.75
2022-11-04T04:32:54.359Z,9.60
2022-11-04T04:35:42.796Z,9.52
2022-11-04T04:38:36.583Z,8.60
2022-11-04T04:41:27.786Z,8.15
2022-11-04T04:44:13.469Z,8.57
2022-11-04T04:46:44.305Z,8.60
2022-11-04T04:49:13.610Z,8.07
2022-11-04T04:51:45.449Z,9.80
2022-11-04T04:56:41.636Z,8.85
2022-11-04T04:59:09.686Z,9.73
2022-11-04T05:01:37.553Z,8.88
2022-11-04T05:04:05.845Z,7.38
2022-11-04T05:06:35.041Z,8.45
2022-11-04T05:09:03.759Z,7.88
2022-11-04T05:11:31.530Z,7.45
2022-11-04T05:13:59.272Z,8.13
2022-11-04T05:16:27.427Z,7.75
2022-11-04T05:18:55.152Z,7.78
2022-11-04T05:21:23.903Z,7.75
2022-11-04T05:23:53.431Z,8.10
2022-11-04T05:26:21.592Z,7.50
2022-11-04T05:28:49.447Z,7.35
2022-11-04T05:31:17.827Z,7.60
2022-11-04T05:33:45.560Z,8.55
2022-11-04T05:36:15.632Z,8.27
2022-11-04T05:38:44.746Z,8.63
2022-11-04T05:41:25.513Z,8.13
2022-11-04T05:43:53.915Z,7.53
2022-11-04T05:46:22.113Z,7.57
2022-11-04T05:48:50.051Z,6.75
2022-11-04T05:51:20.462Z,7.18
2022-11-04T05:53:48.390Z,7.10
2022-11-04T05:56:17.692Z,6.45
2022-11-04T05:58:45.538Z,7.32
2022-11-04T06:01:24.196Z,7.85
2022-11-04T06:03:52.430Z,8.18
2022-11-04T06:06:21.385Z,18.88
2022-11-04T06:08:49.175Z,19.77
2022-11-04T06:11:19.696Z,22.38
2022-11-04T06:13:47.510Z,24.10
2022-11-04T06:16:15.754Z,23.58
2022-11-04T06:18:43.715Z,21.85
2022-11-04T06:21:25.937Z,21.65
2022-11-04T06:23:56.704Z,22.30
2022-11-04T06:26:28.379Z,22.52
2022-11-04T06:31:25.687Z,23.35
2022-11-04T06:33:53.372Z,24.23
2022-11-04T06:36:21.582Z,22.75
2022-11-04T06:38:49.276Z,22.58
2022-11-04T06:41:18.301Z,21.80
2022-11-04T06:43:47.667Z,22.38
2022-11-04T06:46:36.841Z,23.85
2022-11-04T06:49:05.074Z,21.73
2022-11-04T06:51:34.049Z,22.40
2022-11-04T06:54:01.887Z,21.95
2022-11-04T06:56:30.314Z,21.38
2022-11-04T06:58:59.362Z,21.42
2022-11-04T07:01:29.733Z,20.00
2022-11-04T07:04:00.022Z,17.98
2022-11-04T07:06:29.691Z,18.63
2022-11-04T07:08:59.222Z,17.77
2022-11-04T07:11:29.435Z,16.13
2022-11-04T07:13:57.367Z,13.60
2022-11-04T07:16:26.903Z,9.80
2022-11-04T07:18:55.709Z,10.10
2022-11-04T07:21:24.416Z,19.20
2022-11-04T07:23:52.144Z,19.55
2022-11-04T07:26:20.503Z,12.45
2022-11-04T07:28:48.337Z,11.90
2022-11-04T07:31:17.928Z,9.18
2022-11-04T07:33:50.091Z,11.70
2022-11-04T07:36:18.780Z,17.55
2022-11-04T07:38:47.654Z,18.38
2022-11-04T07:41:17.971Z,19.00
2022-11-04T07:43:49.781Z,19.08
2022-11-04T07:46:18.843Z,18.42
2022-11-04T07:48:48.636Z,18.90
2022-11-04T07:51:19.579Z,20.13
2022-11-04T07:53:47.856Z,20.58
2022-11-04T07:56:16.025Z,21.75
2022-11-04T07:58:43.952Z,22.05
2022-11-04T08:01:16.153Z,22.38
2022-11-04T08:03:44.142Z,22.65
2022-11-04T08:06:15.545Z,22.55
2022-11-04T08:08:44.133Z,23.35
2022-11-04T08:11:17.764Z,21.77
2022-11-04T08:13:47.664Z,22.85
2022-11-04T08:16:18.394Z,23.48
2022-11-04T08:18:48.292Z,19.50
2022-11-04T08:21:18.154Z,17.92
2022-11-04T08:23:48.013Z,17.00
2022-11-04T08:26:18.779Z,17.52
2022-11-04T08:28:47.600Z,17.50
2022-11-04T08:31:17.862Z,19.25
2022-11-04T08:33:46.560Z,18.20
2022-11-04T08:36:19.254Z,16.00
2022-11-04T08:41:17.103Z,15.65
2022-11-04T08:43:44.812Z,12.90
2022-11-04T08:46:13.941Z,12.45
2022-11-04T08:48:44.607Z,13.38
2022-11-04T08:51:16.960Z,12.32
2022-11-04T08:56:16.451Z,11.20
2022-11-04T08:58:44.617Z,11.23
2022-11-04T09:01:13.587Z,12.30
2022-11-04T09:03:42.802Z,9.95
2022-11-04T09:06:13.052Z,11.50
2022-11-04T09:08:41.259Z,10.35
2022-11-04T09:11:14.147Z,10.93
2022-11-04T09:13:42.313Z,10.25
2022-11-04T09:16:12.940Z,10.25
2022-11-04T09:18:40.948Z,9.45
2022-11-04T09:21:11.063Z,8.98
2022-11-04T09:23:39.411Z,9.13
2022-11-04T09:26:11.364Z,8.55
2022-11-04T09:28:40.316Z,8.00
2022-11-04T09:31:09.660Z,7.00
2022-11-04T09:33:37.487Z,6.78
2022-11-04T09:36:06.127Z,5.90
2022-11-04T09:38:34.061Z,4.93
2022-11-04T09:41:02.116Z,4.95
2022-11-04T09:43:45.133Z,4.25
2022-11-04T09:46:14.964Z,4.65
2022-11-04T09:48:46.502Z,4.20
2022-11-04T09:51:39.668Z,4.32
2022-11-04T09:54:12.885Z,4.15
2022-11-04T09:56:45.895Z,4.20
2022-11-04T09:59:28.261Z,4.25
2022-11-04T10:02:23.574Z,4.88
2022-11-04T10:05:03.788Z,4.45
2022-11-04T10:07:54.008Z,4.15
2022-11-04T10:10:29.400Z,4.68
2022-11-04T10:13:13.296Z,4.18
2022-11-04T10:16:01.447Z,4.10
2022-11-04T10:18:44.615Z,5.07
2022-11-04T10:21:22.875Z,4.53
2022-11-04T10:24:05.656Z,4.55
2022-11-04T10:26:42.333Z,4.95
2022-11-04T10:29:15.576Z,3.78
2022-11-04T10:31:47.493Z,3.90
2022-11-04T10:34:26.172Z,4.47
2022-11-04T10:36:55.756Z,4.32
2022-11-04T10:39:29.667Z,4.30
2022-11-04T10:41:58.192Z,4.47
2022-11-04T10:44:28.744Z,4.75
2022-11-04T10:47:07.603Z,4.57
2022-11-04T10:52:46.061Z,4.20
2022-11-04T10:55:28.932Z,5.10
2022-11-04T10:57:58.308Z,4.28
2022-11-04T11:00:38.603Z,5.00
2022-11-04T11:03:31.060Z,5.65
2022-11-04T11:06:14.228Z,6.22
2022-11-04T11:08:43.799Z,6.22
2022-11-04T11:11:12.669Z,5.55
2022-11-04T11:13:42.018Z,6.80
2022-11-04T11:16:13.130Z,6.38
2022-11-04T11:18:42.744Z,5.55
2022-11-04T11:21:13.563Z,4.97
2022-11-04T11:23:47.152Z,5.85
2022-11-04T11:26:19.073Z,6.35
2022-11-04T11:28:58.339Z,6.57
2022-11-04T11:31:35.628Z,5.75
2022-11-04T11:34:07.183Z,6.15
2022-11-04T11:36:40.052Z,6.55
2022-11-04T11:39:17.376Z,6.35
2022-11-04T11:41:55.336Z,7.25
2022-11-04T11:44:31.589Z,7.32
2022-11-04T11:47:02.968Z,7.57
2022-11-04T11:49:34.453Z,6.68
2022-11-04T11:54:50.027Z,6.63
2022-11-04T11:57:30.434Z,6.68
2022-11-04T12:03:00.903Z,5.78
2022-11-04T12:11:39.803Z,6.07
2022-11-04T12:14:15.630Z,5.85
2022-11-04T12:16:53.434Z,5.38
2022-11-04T12:19:44.199Z,6.88
2022-11-04T12:22:22.915Z,5.97
2022-11-04T12:24:59.643Z,6.15
2022-11-04T12:27:35.154Z,6.05
2022-11-04T12:30:07.872Z,6.07
2022-11-04T12:32:50.086Z,6.45
2022-11-04T12:35:31.700Z,12.98
2022-11-04T12:38:14.680Z,6.70
2022-11-04T12:41:05.030Z,6.32
2022-11-04T12:43:45.973Z,7.43
2022-11-04T12:46:23.228Z,10.27
2022-11-04T12:49:18.342Z,10.77
2022-11-04T12:51:55.927Z,11.27
2022-11-04T12:54:38.277Z,11.50
2022-11-04T12:57:14.540Z,11.35
2022-11-04T12:59:58.089Z,10.13
2022-11-04T13:02:32.106Z,10.35
2022-11-04T13:05:07.225Z,9.52
2022-11-04T13:07:41.165Z,8.80
2022-11-04T13:10:20.169Z,9.00
2022-11-04T13:12:52.686Z,8.68
2022-11-04T13:15:23.516Z,8.85
2022-11-04T13:17:56.816Z,8.75
2022-11-04T13:20:32.664Z,7.65
2022-11-04T13:23:06.622Z,9.02
2022-11-04T13:25:41.243Z,9.95
2022-11-04T13:28:13.276Z,9.77
2022-11-04T13:30:49.721Z,9.40
2022-11-04T13:33:25.182Z,10.02
2022-11-04T13:36:01.252Z,9.95
2022-11-04T13:38:34.901Z,9.00
2022-11-04T13:41:24.019Z,83.97
2022-11-04T13:43:54.429Z,25.55
2022-11-04T13:46:30.339Z,31.27
2022-11-04T13:49:03.460Z,43.70
2022-11-04T13:51:41.423Z,38.75
2022-11-04T13:54:28.813Z,15.85
2022-11-04T13:57:10.427Z,18.33
2022-11-04T13:59:39.872Z,15.73
2022-11-04T14:02:40.506Z,21.98
2022-11-04T14:05:57.798Z,10.80
2022-11-04T14:08:25.672Z,10.55
2022-11-04T14:11:09.442Z,10.10
2022-11-04T14:14:05.163Z,10.77
2022-11-04T14:16:44.548Z,13.82
2022-11-04T14:19:57.669Z,13.30
2022-11-04T14:22:33.466Z,15.50
2022-11-04T14:25:03.852Z,18.73
2022-11-04T14:27:39.285Z,20.98
2022-11-04T14:30:32.069Z,17.88
2022-11-04T14:33:02.226Z,15.70
2022-11-04T14:35:31.007Z,20.70
2022-11-04T14:38:04.044Z,17.45
2022-11-04T14:40:47.185Z,18.10
2022-11-04T14:43:27.154Z,16.05
2022-11-04T14:45:58.064Z,13.75
2022-11-04T14:48:26.301Z,15.10
2022-11-04T14:50:56.595Z,72.38
2022-11-04T14:53:29.682Z,69.95
2022-11-04T14:56:05.823Z,67.80
2022-11-04T14:58:34.100Z,51.25
2022-11-04T15:01:05.045Z,38.42
2022-11-04T15:06:40.289Z,12.85
2022-11-04T15:09:23.998Z,11.90
2022-11-04T15:12:11.018Z,12.65
2022-11-04T15:14:39.070Z,30.98
2022-11-04T15:17:08.771Z,93.60
2022-11-04T15:19:37.273Z,30.58
2022-11-04T15:22:07.391Z,104.38
2022-11-04T15:24:36.214Z,35.30
2022-11-04T15:27:07.392Z,57.88
2022-11-04T15:29:35.381Z,17.00
2022-11-04T15:32:05.812Z,16.52
2022-11-04T15:34:37.123Z,11.88
2022-11-04T15:37:06.871Z,15.98
2022-11-04T15:39:37.307Z,16.23
2022-11-04T15:42:25.952Z,25.15
2022-11-04T15:44:55.894Z,21.05
2022-11-04T15:47:27.194Z,39.10
2022-11-04T15:50:05.070Z,27.60
2022-11-04T15:52:33.049Z,31.10
2022-11-04T15:55:03.276Z,27.20
2022-11-04T15:57:34.418Z,25.27
2022-11-04T16:00:07.022Z,36.88
2022-11-04T16:02:38.771Z,27.40
2022-11-04T16:05:23.483Z,25.00
2022-11-04T16:07:53.381Z,31.70
2022-11-04T16:10:26.090Z,40.72
2022-11-04T16:12:57.363Z,28.05
2022-11-04T16:15:36.532Z,31.15
2022-11-04T16:18:06.575Z,39.15
2022-11-04T16:20:36.505Z,39.47
2022-11-04T16:23:04.663Z,28.25
2022-11-04T16:25:35.786Z,31.90
2022-11-04T16:28:04.594Z,29.85
2022-11-04T16:30:32.696Z,26.60
2022-11-04T16:33:11.319Z,22.30
2022-11-04T16:35:43.026Z,21.75
2022-11-04T16:38:11.102Z,21.48
2022-11-04T16:40:38.984Z,22.88
2022-11-04T16:43:07.343Z,22.05
2022-11-04T16:45:37.864Z,21.77
2022-11-04T16:48:06.623Z,20.40
2022-11-04T16:50:34.528Z,21.95
2022-11-04T16:53:04.226Z,21.33
2022-11-04T16:55:33.040Z,22.85
2022-11-04T16:58:04.629Z,22.42
2022-11-04T17:00:33.786Z,25.30
2022-11-04T17:03:04.471Z,38.67
2022-11-04T17:05:32.470Z,24.10
2022-11-04T17:08:05.196Z,24.20
2022-11-04T17:10:36.211Z,24.30
2022-11-04T17:13:04.221Z,23.13
2022-11-04T17:15:31.973Z,23.05
2022-11-04T17:18:00.125Z,23.50
2022-11-04T17:20:27.933Z,28.58
2022-11-04T17:22:55.938Z,25.95
2022-11-04T17:25:27.345Z,24.88
2022-11-04T17:27:56.663Z,25.88
2022-11-04T17:30:25.412Z,25.75
2022-11-04T17:32:53.649Z,24.40
2022-11-04T17:35:22.238Z,26.00
2022-11-04T17:37:52.850Z,25.35
2022-11-04T17:40:22.118Z,26.45
2022-11-04T17:43:11.882Z,27.17
2022-11-04T17:45:42.237Z,26.02
2022-11-04T17:48:11.258Z,26.52
2022-11-04T17:50:41.322Z,26.63
2022-11-04T17:53:09.675Z,26.48
2022-11-04T17:55:39.839Z,30.58
2022-11-04T17:58:07.944Z,30.83
2022-11-04T18:00:35.869Z,31.63
2022-11-04T18:03:06.580Z,30.25
2022-11-04T18:05:34.683Z,29.63
2022-11-04T18:08:02.870Z,32.17
2022-11-04T18:10:30.596Z,31.95
2022-11-04T18:12:58.557Z,41.97
2022-11-04T18:15:26.469Z,52.88
2022-11-04T18:17:54.464Z,48.25
2022-11-04T18:20:23.471Z,38.67
2022-11-04T18:22:51.577Z,36.13
2022-11-04T18:25:19.460Z,32.30
2022-11-04T18:27:48.875Z,38.00
2022-11-04T18:30:16.995Z,35.05
2022-11-04T18:32:44.965Z,40.20
2022-11-04T18:35:12.675Z,35.03
2022-11-04T18:37:47.028Z,39.75
2022-11-04T18:40:15.727Z,41.28
2022-11-04T18:42:44.158Z,40.17
2022-11-04T18:45:12.220Z,40.50
2022-11-04T18:47:40.210Z,41.15
2022-11-04T18:50:08.700Z,39.97
2022-11-04T18:52:36.872Z,37.58
2022-11-04T18:55:06.691Z,40.72
2022-11-04T18:57:35.080Z,44.22
2022-11-04T19:00:03.105Z,46.10
2022-11-04T19:02:32.443Z,44.65
2022-11-04T19:05:00.478Z,43.75
2022-11-04T19:07:28.398Z,47.40
2022-11-04T19:09:56.229Z,51.40
2022-11-04T19:12:43.074Z,46.30
2022-11-04T19:15:11.307Z,60.00
2022-11-04T19:17:39.649Z,51.85
2022-11-04T19:20:12.288Z,48.03
2022-11-04T19:22:41.851Z,52.55
2022-11-04T19:25:10.963Z,51.67
2022-11-04T19:27:40.514Z,47.47
2022-11-04T19:30:09.746Z,46.10
2022-11-04T19:32:37.696Z,44.75
2022-11-04T19:35:05.783Z,44.45
2022-11-04T19:37:34.025Z,43.00
2022-11-04T19:40:01.836Z,45.05
2022-11-04T19:42:47.257Z,44.00
2022-11-04T19:45:16.564Z,45.00
2022-11-04T19:47:44.835Z,46.60
2022-11-04T19:50:13.043Z,45.15
2022-11-04T19:52:41.480Z,47.00
2022-11-04T19:55:11.226Z,47.90
2022-11-04T19:57:39.348Z,49.85
2022-11-04T20:00:08.502Z,51.40
2022-11-04T20:02:37.883Z,51.13
2022-11-04T20:05:06.152Z,53.33
2022-11-04T20:07:34.346Z,52.20
2022-11-04T20:10:02.206Z,52.63
2022-11-04T20:12:48.067Z,54.22
2022-11-04T20:15:16.147Z,53.20
2022-11-04T20:17:45.474Z,51.05
2022-11-04T20:20:13.200Z,53.60
2022-11-04T20:22:41.456Z,52.40
2022-11-04T20:25:09.899Z,55.90
2022-11-04T20:27:38.849Z,57.45
2022-11-04T20:30:07.840Z,51.78
2022-11-04T20:32:36.052Z,54.20
2022-11-04T20:35:05.807Z,56.90
2022-11-04T20:37:33.993Z,54.60
2022-11-04T20:40:01.774Z,53.60
2022-11-04T20:42:30.013Z,53.00
2022-11-04T20:44:57.815Z,54.67
2022-11-04T20:47:25.796Z,53.67
2022-11-04T20:49:53.488Z,54.70
2022-11-04T20:52:22.919Z,55.72
2022-11-04T20:54:50.590Z,55.10
2022-11-04T20:57:18.777Z,56.55
2022-11-04T20:59:46.741Z,58.42
2022-11-04T21:02:14.860Z,58.67
2022-11-04T21:04:42.700Z,65.80
2022-11-04T21:07:11.166Z,59.33
2022-11-04T21:09:40.208Z,58.85
2022-11-04T21:12:08.729Z,57.53
2022-11-04T21:14:36.547Z,56.65
2022-11-04T21:17:05.243Z,57.60
2022-11-04T21:19:33.288Z,54.05
2022-11-04T21:22:01.376Z,54.30
2022-11-04T21:24:29.135Z,58.35
2022-11-04T21:26:58.703Z,58.45
2022-11-04T21:29:26.632Z,66.03
2022-11-04T21:31:54.571Z,64.60
2022-11-04T21:34:22.365Z,68.75
2022-11-04T21:36:51.825Z,57.28
2022-11-04T21:39:19.668Z,60.88
2022-11-04T21:41:47.771Z,56.92
2022-11-04T21:44:17.040Z,57.95
2022-11-04T21:46:45.005Z,58.72
2022-11-04T21:49:13.577Z,59.20
2022-11-04T21:51:41.715Z,55.03
2022-11-04T21:54:09.511Z,53.47
2022-11-04T21:56:37.576Z,53.58
2022-11-04T21:59:05.713Z,56.33
2022-11-04T22:01:35.116Z,52.88
2022-11-04T22:04:03.775Z,55.03
2022-11-04T22:06:35.548Z,53.47
2022-11-04T22:09:05.720Z,51.40
2022-11-04T22:11:36.471Z,51.50
2022-11-04T22:14:07.364Z,50.67
2022-11-04T22:16:38.892Z,51.70
2022-11-04T22:19:10.111Z,62.10
2022-11-04T22:21:40.800Z,58.13
2022-11-04T22:24:11.037Z,62.42
2022-11-04T22:26:40.158Z,64.22
2022-11-04T22:29:08.171Z,61.45
2022-11-04T22:31:38.876Z,62.45
2022-11-04T22:34:07.187Z,66.35
2022-11-04T22:36:35.462Z,65.00
2022-11-04T22:39:03.450Z,60.42
2022-11-04T22:41:32.991Z,60.08
2022-11-04T22:44:00.810Z,64.00
2022-11-04T22:46:30.237Z,62.45
2022-11-04T22:49:00.432Z,68.63
2022-11-04T22:51:29.607Z,71.13
2022-11-04T22:54:02.893Z,70.45
2022-11-04T22:56:34.936Z,112.32
2022-11-04T22:59:02.855Z,84.47
2022-11-04T23:01:33.080Z,76.05
2022-11-04T23:04:02.530Z,84.13
2022-11-04T23:06:30.787Z,74.45
2022-11-04T23:09:00.415Z,73.68
2022-11-04T23:11:48.712Z,76.38
2022-11-04T23:14:36.620Z,75.43
2022-11-04T23:17:30.642Z,69.80
2022-11-04T23:20:00.183Z,70.68
2022-11-04T23:22:45.846Z,71.07
2022-11-04T23:25:14.802Z,68.05
2022-11-04T23:28:04.264Z,68.70
2022-11-04T23:30:34.936Z,69.40
2022-11-04T23:33:04.697Z,70.05
2022-11-04T23:35:53.747Z,70.10
2022-11-04T23:38:22.650Z,65.07
2022-11-04T23:41:06.713Z,63.97
2022-11-04T23:43:35.162Z,64.82
2022-11-04T23:46:21.295Z,69.20
2022-11-04T23:49:07.151Z,79.95
2022-11-04T23:51:54.043Z,72.68
2022-11-04T23:54:39.944Z,67.15
2022-11-04T23:57:31.165Z,66.13
